Hamilton, Nebraska
Current Conditions -  °F | °C
As of 8:15 PM on Saturday 22 Nov 2014 (Local Time) from KHJH Reporting Station
Overcast Overcast  
Wind Chill: 14°   Ceiling: 1400
Heat Index: 14°   Visibility: 10mi
Dew Point: 11°   Wind: 14mph
Humidity: 83%   Direction: 200°SSW
Pressure: 29.59"   Gusts: 23mph
Location:  40.3936°N, 97.5387°W
Report Text: KHJH 230215Z AUTO 20012G20KT 10SM BKN014 OVC019 14/11 A2959 RMK AO2 T01380110
Loading
Personal Weather Stations






























Interactive Weather Map New forecast layout! Learn more

10-Day Weather Forecast

Advertisements
Track Severe Weather on mobile